Time;durP1;ratioP1;P1;durP2;ratioP2;P2;SDS_P1;SDS_P2;PMS_P1;PMS_P2;Temp;Humidity;BMP_temperature;BMP_pressure;BME280_temperature;BME280_humidity;BME280_pressure;Samples;Min_cycle;Max_cycle;Signal;HPM_P1;HPM_P2
2023/07/11 00:00:23;;;;;;;12.80;11.50;;;;;;;21.36;67.43;100417.88;108934;1275;24538;-79
2023/07/11 00:03:13;;;;;;;12.70;11.30;;;;;;;21.30;67.57;100413.41;109098;1274;22133;-79
2023/07/11 00:06:09;;;;;;;13.20;11.60;;;;;;;21.26;67.81;100408.67;108899;1274;23162;-80
2023/07/11 00:08:39;;;;;;;12.90;10.60;;;;;;;21.18;67.82;100412.00;108991;1266;22434;-80
2023/07/11 00:11:17;;;;;;;11.90;10.60;;;;;;;21.15;67.75;100415.89;109375;1271;21979;-78
2023/07/11 00:13:51;;;;;;;14.20;10.60;;;;;;;21.09;67.86;100415.27;109591;1262;22018;-79
2023/07/11 00:16:34;;;;;;;11.30;9.80;;;;;;;21.08;68.03;100423.81;110336;1262;468909;-79
2023/07/11 00:19:07;;;;;;;13.00;10.10;;;;;;;21.06;68.06;100424.48;110493;1265;21974;-79
2023/07/11 00:21:40;;;;;;;11.90;9.70;;;;;;;21.02;68.17;100420.79;110699;1265;22417;-79
2023/07/11 00:24:13;;;;;;;14.30;11.10;;;;;;;20.94;68.06;100422.14;110242;1265;22010;-80
2023/07/11 00:26:43;;;;;;;9.60;8.70;;;;;;;20.87;68.00;100427.63;110499;1261;21981;-79
2023/07/11 00:29:20;;;;;;;10.00;8.00;;;;;;;20.82;67.95;100433.52;110802;1261;24392;-79
2023/07/11 00:31:50;;;;;;;8.50;7.60;;;;;;;20.77;67.88;100433.38;110534;1263;22035;-81
2023/07/11 00:34:19;;;;;;;9.30;7.60;;;;;;;20.74;67.67;100435.20;110578;1263;21983;-81
2023/07/11 00:36:52;;;;;;;9.80;8.10;;;;;;;20.69;67.60;100436.45;110404;1260;21989;-80
2023/07/11 00:39:33;;;;;;;9.40;7.70;;;;;;;20.62;67.48;100433.84;110560;1265;23709;-79
2023/07/11 00:42:09;;;;;;;9.00;8.20;;;;;;;20.58;67.53;100430.10;110555;1265;23690;-79
2023/07/11 00:45:03;;;;;;;10.80;7.70;;;;;;;20.58;67.49;100433.23;110383;1265;22378;-80
2023/07/11 00:47:39;;;;;;;13.90;7.30;;;;;;;20.54;67.40;100439.40;110567;1265;23734;-80
2023/07/11 00:50:12;;;;;;;8.40;7.60;;;;;;;20.52;67.18;100433.54;110250;1265;23026;-81
2023/07/11 00:52:45;;;;;;;8.60;6.80;;;;;;;20.50;67.22;100433.84;110403;1265;21986;-78
2023/07/11 00:55:19;;;;;;;11.70;7.00;;;;;;;20.46;67.22;100434.70;110413;1265;21964;-79
2023/07/11 00:57:59;;;;;;;8.60;7.00;;;;;;;20.41;67.23;100438.29;110765;1257;22173;-79
2023/07/11 01:00:53;;;;;;;15.60;8.20;;;;;;;20.35;67.33;100439.60;111331;1257;21978;-79
2023/07/11 01:03:28;;;;;;;8.40;7.50;;;;;;;20.31;67.38;100441.70;111093;1257;23613;-79
2023/07/11 01:06:01;;;;;;;8.20;6.80;;;;;;;20.31;67.56;100445.42;110600;1264;21955;-78
2023/07/11 01:08:41;;;;;;;11.00;5.90;;;;;;;20.34;67.59;100444.11;110583;1263;23623;-79
2023/07/11 01:11:18;;;;;;;10.10;7.50;;;;;;;20.35;67.49;100443.54;110277;1264;23692;-79
2023/07/11 01:13:56;;;;;;;8.60;6.40;;;;;;;20.33;67.45;100444.21;110304;1264;21985;-81
2023/07/11 01:16:42;;;;;;;8.70;6.60;;;;;;;20.30;67.32;100439.30;110369;1264;23602;-81
2023/07/11 01:19:15;;;;;;;8.50;6.60;;;;;;;20.27;67.13;100438.45;110240;1264;21970;-81
2023/07/11 01:21:45;;;;;;;7.00;6.30;;;;;;;20.23;67.09;100437.02;110411;1264;21981;-79
2023/07/11 01:24:22;;;;;;;8.10;6.30;;;;;;;20.21;67.08;100433.45;110228;1252;21991;-81
2023/07/11 01:27:12;;;;;;;8.10;6.60;;;;;;;20.12;67.06;100431.31;110668;1264;22948;-81
2023/07/11 01:29:41;;;;;;;7.10;6.30;;;;;;;20.12;67.19;100439.82;110239;1266;22992;-79
2023/07/11 01:32:11;;;;;;;11.00;6.20;;;;;;;20.10;67.26;100440.16;109331;1271;22729;-81
2023/07/11 01:34:46;;;;;;;7.60;6.00;;;;;;;20.06;67.25;100442.38;109383;1272;22031;-79
2023/07/11 01:37:15;;;;;;;11.80;6.20;;;;;;;20.02;67.12;100444.13;109349;1272;22754;-81
2023/07/11 01:39:50;;;;;;;13.00;5.70;;;;;;;19.95;67.19;100440.77;109305;1272;21988;-80
2023/07/11 01:42:19;;;;;;;9.90;6.40;;;;;;;19.90;67.35;100445.02;109633;1265;23696;-80
2023/07/11 01:44:49;;;;;;;12.80;7.00;;;;;;;19.88;67.48;100448.14;109405;1272;21992;-79
2023/07/11 01:47:19;;;;;;;8.40;6.20;;;;;;;19.86;67.53;100451.30;109200;1273;21993;-78
2023/07/11 01:49:48;;;;;;;8.10;5.70;;;;;;;19.84;67.41;100454.64;109385;1268;22468;-80
2023/07/11 01:52:21;;;;;;;7.20;5.70;;;;;;;19.80;67.32;100455.81;109851;1268;23103;-79
2023/07/11 01:54:51;;;;;;;9.00;6.20;;;;;;;19.75;67.19;100460.08;109202;1273;23074;-78
2023/07/11 01:57:22;;;;;;;8.20;6.10;;;;;;;19.69;67.30;100465.09;108790;1273;23085;-80
2023/07/11 01:59:52;;;;;;;7.60;5.50;;;;;;;19.62;67.39;100462.44;108889;1278;22013;-79
2023/07/11 02:02:21;;;;;;;10.80;6.00;;;;;;;19.60;67.56;100465.92;108587;1271;22765;-80
2023/07/11 02:04:58;;;;;;;8.50;6.20;;;;;;;19.55;67.39;100469.14;108978;1274;23883;-79
2023/07/11 02:07:34;;;;;;;7.80;5.90;;;;;;;19.46;67.44;100472.02;109122;1273;23734;-79
2023/07/11 02:10:06;;;;;;;7.80;6.00;;;;;;;19.44;67.64;100473.08;108971;1271;21963;-81
2023/07/11 02:12:42;;;;;;;8.90;5.90;;;;;;;19.46;67.86;100470.13;109368;1260;23197;-81
2023/07/11 02:15:17;;;;;;;16.10;5.90;;;;;;;19.45;67.73;100473.32;109827;1264;21983;-80
2023/07/11 02:17:58;;;;;;;7.30;6.60;;;;;;;19.43;67.49;100474.92;110156;1265;22129;-81
2023/07/11 02:20:43;;;;;;;9.50;6.60;;;;;;;19.39;67.53;100474.67;109802;1262;21983;-80
2023/07/11 02:23:15;;;;;;;8.00;6.00;;;;;;;19.36;67.48;100479.52;109793;1272;22825;-80
2023/07/11 02:25:56;;;;;;;9.70;7.00;;;;;;;19.28;67.35;100478.65;109574;1272;22763;-80
2023/07/11 02:28:26;;;;;;;6.20;5.60;;;;;;;19.20;67.44;100481.03;108997;1277;21985;-78
2023/07/11 02:30:56;;;;;;;9.20;6.40;;;;;;;19.15;67.56;100479.80;108881;1277;22005;-80
2023/07/11 02:33:33;;;;;;;7.30;6.20;;;;;;;19.08;67.53;100487.15;109123;1277;22353;-81
2023/07/11 02:36:10;;;;;;;8.20;7.00;;;;;;;19.04;67.72;100489.00;109211;1264;22005;-81
2023/07/11 02:38:43;;;;;;;9.90;6.40;;;;;;;19.01;68.03;100497.31;108823;1276;23809;-79
2023/07/11 02:41:16;;;;;;;8.40;6.20;;;;;;;19.01;68.05;100496.46;109084;1276;22984;-80
2023/07/11 02:43:52;;;;;;;6.60;5.90;;;;;;;19.01;68.02;100492.42;109265;1276;22119;-80
2023/07/11 02:46:33;;;;;;;8.10;5.60;;;;;;;18.98;67.93;100494.23;109458;1271;22045;-80
2023/07/11 02:49:08;;;;;;;7.60;6.30;;;;;;;18.93;67.89;100497.70;110512;1265;24306;-80
2023/07/11 02:51:40;;;;;;;8.60;6.60;;;;;;;18.85;67.98;100501.65;110239;1265;22961;-80
2023/07/11 02:54:15;;;;;;;;;;;;;;;18.81;68.07;100504.20;110560;1265;21956;-80
2023/07/11 02:56:47;;;;;;;7.30;6.60;;;;;;;18.67;68.44;100502.16;110493;1263;23792;-79
2023/07/11 02:59:17;;;;;;;6.40;5.80;;;;;;;18.64;68.61;100506.72;109471;1269;22021;-79
2023/07/11 03:01:53;;;;;;;7.30;6.30;;;;;;;18.64;68.64;100507.83;109349;1273;23605;-79
2023/07/11 03:04:41;;;;;;;8.80;6.10;;;;;;;18.63;68.69;100509.10;109526;1269;22740;-81
2023/07/11 03:07:17;;;;;;;7.30;6.20;;;;;;;18.63;68.58;100510.55;110180;1269;21977;-80
2023/07/11 03:09:55;;;;;;;13.10;7.10;;;;;;;18.62;68.68;100508.97;110286;1269;21979;-80
2023/07/11 03:12:26;;;;;;;10.80;6.40;;;;;;;18.62;68.58;100507.45;110159;1270;23030;-80
2023/07/11 03:15:00;;;;;;;7.30;6.60;;;;;;;18.61;68.65;100510.50;110119;1269;23042;-81
2023/07/11 03:17:33;;;;;;;7.40;6.40;;;;;;;18.59;68.72;100514.34;110165;1265;21994;-80
2023/07/11 03:20:07;;;;;;;32.00;29.40;;;;;;;18.59;68.75;100518.93;110594;1261;21948;-80
2023/07/11 03:22:40;;;;;;;17.20;15.40;;;;;;;18.59;68.89;100520.66;110969;1261;22003;-80
2023/07/11 03:25:15;;;;;;;9.60;8.50;;;;;;;18.55;68.79;100516.73;110783;1261;21957;-79
2023/07/11 03:27:46;;;;;;;;;;;;;;;18.61;68.94;100525.52;110540;1261;21929;-79
2023/07/11 03:30:16;;;;;;;93.20;85.40;;;;;;;18.55;69.23;100528.50;110863;1261;23053;-80
2023/07/11 03:32:49;;;;;;;10.00;8.80;;;;;;;18.58;69.11;100530.60;110748;1261;24433;-80
2023/07/11 03:35:22;;;;;;;10.50;8.30;;;;;;;18.63;68.92;100534.34;110922;1261;22237;-81
2023/07/11 03:37:52;;;;;;;15.80;8.10;;;;;;;18.63;69.00;100530.95;110824;1261;21968;-80
2023/07/11 03:40:21;;;;;;;11.60;8.60;;;;;;;18.67;69.02;100531.07;110040;1269;22898;-80
2023/07/11 03:42:55;;;;;;;11.90;7.90;;;;;;;18.69;68.88;100532.98;110024;1269;22733;-81
2023/07/11 03:45:24;;;;;;;12.10;7.40;;;;;;;18.70;68.71;100528.70;110147;1265;22906;-80
2023/07/11 03:48:09;;;;;;;9.00;8.10;;;;;;;18.70;68.65;100529.64;110732;1265;22003;-80
2023/07/11 03:50:47;;;;;;;9.50;7.60;;;;;;;18.68;68.82;100529.73;110418;1265;23089;-80
2023/07/11 03:53:22;;;;;;;9.20;7.50;;;;;;;18.71;68.92;100528.30;110481;1265;23412;-79
2023/07/11 03:55:52;;;;;;;9.20;7.20;;;;;;;18.75;68.96;100531.73;110366;1265;21991;-79
2023/07/11 03:58:26;;;;;;;8.50;7.30;;;;;;;18.80;68.94;100534.76;110547;1262;23666;-79
2023/07/11 04:00:59;;;;;;;8.80;7.90;;;;;;;18.85;68.88;100537.44;110588;1265;22079;-80
2023/07/11 04:03:35;;;;;;;9.70;7.70;;;;;;;18.87;68.71;100543.77;110559;1265;21978;-79
2023/07/11 04:06:07;;;;;;;11.40;7.20;;;;;;;18.89;68.38;100545.98;110685;1257;21965;-79
2023/07/11 04:08:41;;;;;;;10.60;8.60;;;;;;;18.90;68.57;100541.14;110951;1256;21994;-80
2023/07/11 04:11:21;;;;;;;7.90;6.80;;;;;;;18.94;68.59;100542.48;111078;1257;23615;-80
2023/07/11 04:13:51;;;;;;;8.70;7.80;;;;;;;18.99;68.55;100546.16;110804;1263;22017;-80
2023/07/11 04:16:23;;;;;;;12.40;7.60;;;;;;;19.07;68.37;100550.71;110857;1261;23037;-79
2023/07/11 04:18:54;;;;;;;10.40;7.10;;;;;;;19.11;68.29;100551.63;110502;1263;23635;-82
2023/07/11 04:21:26;;;;;;;8.00;7.20;;;;;;;19.17;68.29;100557.44;109796;1269;22901;-79
2023/07/11 04:23:57;;;;;;;9.00;7.30;;;;;;;19.22;68.26;100562.14;109922;1269;22075;-78
2023/07/11 04:26:34;;;;;;;10.40;7.20;;;;;;;19.33;68.15;100565.84;109657;1269;21986;-82
2023/07/11 04:29:12;;;;;;;10.40;7.00;;;;;;;19.38;67.95;100563.16;109355;1275;21985;-82
2023/07/11 04:31:42;;;;;;;8.70;6.80;;;;;;;19.47;67.78;100563.56;108831;1281;22178;-80
2023/07/11 04:34:14;;;;;;;9.20;6.80;;;;;;;19.59;67.67;100567.86;108948;1277;23055;-82
2023/07/11 04:37:00;;;;;;;9.40;6.40;;;;;;;19.65;67.26;100574.59;108854;1281;22003;-81
2023/07/11 04:39:40;;;;;;;7.90;7.10;;;;;;;19.75;67.10;100574.98;109241;1273;21998;-82
2023/07/11 04:42:15;;;;;;;11.40;7.70;;;;;;;19.89;67.03;100575.77;109372;1273;21980;-82
2023/07/11 04:45:43;;;;;;;7.70;6.90;;;;;;;20.05;66.58;100578.45;109195;1274;22480;-82
2023/07/11 04:48:27;;;;;;;9.40;7.20;;;;;;;20.18;65.86;100578.73;109312;1275;22857;-81
2023/07/11 04:51:11;;;;;;;9.50;6.90;;;;;;;20.29;65.68;100583.05;109150;1278;23086;-79
2023/07/11 04:53:50;;;;;;;8.00;7.10;;;;;;;20.48;65.74;100584.98;108777;1280;23665;-80
2023/07/11 04:56:19;;;;;;;9.50;6.90;;;;;;;20.75;65.65;100591.25;108610;1281;21992;-81
2023/07/11 04:58:48;;;;;;;11.00;7.00;;;;;;;21.03;65.14;100594.95;108644;1281;23004;-80
2023/07/11 05:01:20;;;;;;;10.70;6.90;;;;;;;21.27;63.89;100595.93;108732;1281;22006;-81
2023/07/11 05:03:59;;;;;;;7.40;6.60;;;;;;;21.45;63.03;100598.09;108916;1277;23016;-83
2023/07/11 05:06:32;;;;;;;8.90;6.40;;;;;;;21.57;62.33;100599.61;109080;1281;22057;-81
2023/07/11 05:09:17;;;;;;;7.10;6.00;;;;;;;21.75;62.40;100601.26;108782;1278;21987;-79
2023/07/11 05:11:54;;;;;;;6.70;6.00;;;;;;;22.01;61.98;100603.11;108797;1278;24406;-80
2023/07/11 05:14:26;;;;;;;7.00;6.10;;;;;;;22.23;61.17;100605.60;108585;1281;22279;-86
2023/07/11 05:17:28;;;;;;;16.50;7.90;;;;;;;22.49;60.78;100601.95;109299;1274;24895;-80
2023/07/11 05:20:15;;;;;;;7.20;6.40;;;;;;;22.80;60.44;100601.69;109592;1274;22644;-79
2023/07/11 05:23:02;;;;;;;8.90;7.30;;;;;;;23.17;59.65;100602.83;109471;1273;21986;-80
2023/07/11 05:25:42;;;;;;;9.60;6.20;;;;;;;23.46;58.22;100608.84;109496;1273;22067;-80
2023/07/11 05:28:25;;;;;;;9.00;6.20;;;;;;;23.65;57.19;100606.98;109614;1274;22336;-82
2023/07/11 05:31:18;;;;;;;11.60;5.60;;;;;;;23.92;56.81;100601.00;109428;1274;23603;-79
2023/07/11 05:35:04;;;;;;;9.10;5.60;;;;;;;24.19;55.79;100602.15;109845;1269;21825;-80
2023/07/11 05:37:49;;;;;;;7.50;5.60;;;;;;;24.56;55.53;100606.38;110595;1263;22027;-80
2023/07/11 05:40:27;;;;;;;6.70;5.80;;;;;;;25.01;55.17;100607.33;110848;1263;23798;-79
2023/07/11 05:43:14;;;;;;;20.70;7.20;;;;;;;25.41;53.44;100610.11;110643;1258;23138;-80
2023/07/11 05:45:47;;;;;;;27.30;8.40;;;;;;;25.57;51.33;100605.94;111014;1253;22179;-80
2023/07/11 05:48:19;;;;;;;9.60;6.10;;;;;;;25.68;51.01;100604.89;111093;1258;21991;-81
2023/07/11 05:51:30;;;;;;;9.30;5.20;;;;;;;25.86;50.90;100605.23;110331;1264;22048;-80
2023/07/11 05:54:09;;;;;;;14.00;5.90;;;;;;;25.95;49.94;100605.98;109055;1277;23731;-79
2023/07/11 05:56:45;;;;;;;9.50;6.20;;;;;;;26.09;50.14;100602.70;109113;1270;21964;-80
2023/07/11 05:59:28;;;;;;;9.00;6.00;;;;;;;26.36;50.10;100599.39;109085;1277;23911;-81
2023/07/11 06:02:02;;;;;;;10.40;7.70;;;;;;;26.46;48.10;100603.95;109193;1277;22739;-82
2023/07/11 06:04:43;;;;;;;12.30;5.30;;;;;;;26.59;48.50;100601.90;109170;1277;21985;-79
2023/07/11 06:07:28;;;;;;;7.70;5.00;;;;;;;26.85;48.28;100602.72;109215;1277;23641;-82
2023/07/11 06:09:59;;;;;;;11.90;5.20;;;;;;;27.09;47.11;100603.77;109589;1271;23753;-81
2023/07/11 06:12:33;;;;;;;7.20;5.00;;;;;;;27.24;46.48;100598.70;109627;1270;22019;-80
2023/07/11 06:15:12;;;;;;;6.40;4.50;;;;;;;27.35;45.67;100599.52;109686;1270;22008;-79
2023/07/11 06:17:43;;;;;;;11.80;5.30;;;;;;;27.31;45.03;100597.25;109599;1266;21994;-79
2023/07/11 06:20:16;;;;;;;9.90;5.60;;;;;;;27.27;45.08;100598.96;109406;1274;21988;-81
2023/07/11 06:22:51;;;;;;;12.80;5.20;;;;;;;27.31;45.61;100600.84;109125;1278;23799;-82
2023/07/11 06:25:31;;;;;;;13.60;5.40;;;;;;;27.48;45.29;100597.23;109420;1273;22013;-81
2023/07/11 06:28:17;;;;;;;5.00;3.80;;;;;;;27.67;44.46;100591.02;109379;1274;22004;-79
2023/07/11 06:30:57;;;;;;;7.10;4.90;;;;;;;27.87;44.00;100595.87;109592;1270;21994;-80
2023/07/11 06:33:35;;;;;;;11.10;5.70;;;;;;;27.89;43.06;100598.41;109955;1270;22040;-81
2023/07/11 06:36:12;;;;;;;8.90;4.50;;;;;;;27.86;43.10;100600.58;110290;1254;23044;-82
2023/07/11 06:38:44;;;;;;;11.50;5.20;;;;;;;27.93;43.35;100604.97;110517;1265;21988;-80
2023/07/11 06:41:21;;;;;;;9.40;4.40;;;;;;;28.06;43.02;100606.55;110800;1259;23046;-81
2023/07/11 06:44:11;;;;;;;9.10;4.40;;;;;;;28.16;42.62;100604.88;111042;1259;21961;-80
2023/07/11 06:46:52;;;;;;;;;;;;;;;;;;;;;
2023/07/11 06:49:34;;;;;;;9.60;4.90;;;;;;;28.44;41.57;100605.98;111059;1259;24311;-81
2023/07/11 06:52:13;;;;;;;11.50;7.70;;;;;;;28.57;41.10;100608.29;111155;1259;21963;-82
2023/07/11 06:54:55;;;;;;;15.70;4.90;;;;;;;28.49;40.61;100607.91;111258;1259;21926;-81
2023/07/11 06:57:36;;;;;;;5.50;4.20;;;;;;;28.48;41.49;100612.67;111220;1259;22004;-80
2023/07/11 07:00:12;;;;;;;6.60;4.00;;;;;;;28.63;40.80;100610.03;111017;1259;21967;-81
2023/07/11 07:02:52;;;;;;;6.20;4.20;;;;;;;28.70;40.40;100609.04;111094;1259;22674;-81
2023/07/11 07:05:31;;;;;;;9.60;4.70;;;;;;;28.80;40.18;100611.48;111034;1259;23736;-85
2023/07/11 07:08:36;;;;;;;6.90;5.90;;;;;;;28.69;39.86;100608.13;111247;1259;23053;-83
2023/07/11 07:11:14;;;;;;;7.70;4.00;;;;;;;28.78;40.30;100607.80;109992;1266;22112;-80
2023/07/11 07:13:51;;;;;;;6.70;3.80;;;;;;;28.98;39.72;100609.45;109783;1270;21978;-79
2023/07/11 07:16:42;;;;;;;7.50;4.50;;;;;;;29.16;39.51;100613.36;109726;1270;23055;-80
2023/07/11 07:19:14;;;;;;;8.50;4.70;;;;;;;29.28;39.08;100609.94;109279;1270;23695;-79
2023/07/11 07:22:08;;;;;;;11.10;4.50;;;;;;;29.43;38.79;100613.91;109695;1270;23686;-80
2023/07/11 07:24:52;;;;;;;8.90;4.30;;;;;;;29.57;38.71;100615.44;110057;1270;21973;-79
2023/07/11 07:28:02;;;;;;;;;;;;;;;;;;;;;
2023/07/11 07:30:54;;;;;;;6.50;4.40;;;;;;;29.79;37.78;100609.84;110875;1262;21976;-79
2023/07/11 07:33:41;;;;;;;8.00;4.10;;;;;;;29.88;37.65;100609.42;110283;1262;21988;-80
2023/07/11 07:36:19;;;;;;;8.00;3.70;;;;;;;30.01;37.68;100608.02;110698;1262;21989;-79
2023/07/11 07:38:51;;;;;;;6.90;4.10;;;;;;;30.14;36.92;100611.89;110700;1258;22715;-79
2023/07/11 07:41:32;;;;;;;7.50;3.60;;;;;;;30.12;36.49;100612.28;111135;1258;21966;-81
2023/07/11 07:44:33;;;;;;;8.20;3.30;;;;;;;30.14;36.40;100607.59;111264;1258;23737;-80
2023/07/11 07:47:15;;;;;;;6.50;3.80;;;;;;;30.03;35.65;100606.02;111077;1258;22742;-79
2023/07/11 07:49:55;;;;;;;9.30;3.00;;;;;;;29.99;35.64;100605.41;111052;1258;21960;-81
2023/07/11 07:52:34;;;;;;;8.60;3.60;;;;;;;30.06;35.58;100601.77;110762;1258;23584;-79
2023/07/11 07:55:12;;;;;;;3.40;2.90;;;;;;;30.12;35.51;100600.85;110332;1264;23030;-79
2023/07/11 07:57:48;;;;;;;8.00;3.20;;;;;;;30.07;34.72;100594.77;109855;1270;22009;-79
2023/07/11 08:00:22;;;;;;;369.50;44.70;;;;;;;29.95;35.21;100594.94;109193;1275;21986;-80
2023/07/11 08:02:52;;;;;;;122.30;15.90;;;;;;;29.98;35.52;100590.70;109182;1276;21970;-79
2023/07/11 08:05:26;;;;;;;6.90;2.90;;;;;;;30.13;35.64;100593.67;108986;1276;23520;-78
2023/07/11 08:07:59;;;;;;;8.90;2.90;;;;;;;30.37;34.96;100597.44;108942;1275;21996;-79
2023/07/11 08:10:33;;;;;;;3.50;2.90;;;;;;;30.49;34.06;100593.63;108968;1276;21991;-79
2023/07/11 08:13:27;;;;;;;4.60;2.50;;;;;;;30.61;33.41;100595.67;109291;1270;21958;-79
2023/07/11 08:16:24;;;;;;;6.10;3.50;;;;;;;30.61;33.20;100595.50;110147;1264;23624;-79
2023/07/11 08:19:20;;;;;;;5.00;2.70;;;;;;;30.64;33.34;100590.17;110259;1264;21974;-80
2023/07/11 08:21:54;;;;;;;6.10;3.40;;;;;;;30.58;32.85;100589.13;110364;1263;21981;-80
2023/07/11 08:24:27;;;;;;;5.40;3.00;;;;;;;30.45;33.32;100592.02;110384;1259;23156;-79
2023/07/11 08:27:04;;;;;;;4.80;3.00;;;;;;;30.11;33.23;100584.40;111146;1259;21961;-79
2023/07/11 08:29:45;;;;;;;4.30;2.60;;;;;;;29.59;33.77;100587.23;110978;1259;22752;-81
2023/07/11 08:32:26;;;;;;;5.90;3.50;;;;;;;29.15;34.59;100588.46;110776;1259;23026;-79
2023/07/11 08:35:01;;;;;;;4.50;4.00;;;;;;;28.91;35.38;100588.95;110955;1256;21958;-80
2023/07/11 08:37:51;;;;;;;6.00;4.50;;;;;;;28.77;35.62;100584.63;111095;1259;23010;-80
2023/07/11 08:40:27;;;;;;;3.60;3.00;;;;;;;28.76;36.26;100585.84;110976;1259;23612;-81
2023/07/11 08:43:28;;;;;;;5.10;3.00;;;;;;;28.81;35.72;100589.05;110850;1259;23686;-80
2023/07/11 08:46:05;;;;;;;5.10;2.70;;;;;;;28.82;35.33;100586.16;110961;1259;21964;-80
2023/07/11 08:48:51;;;;;;;4.90;3.30;;;;;;;28.88;35.20;100582.46;111192;1259;21960;-79
2023/07/11 08:51:44;;;;;;;7.30;3.00;;;;;;;29.04;35.27;100584.66;111013;1254;22752;-81
2023/07/11 08:54:31;;;;;;;6.40;2.60;;;;;;;29.19;34.50;100580.46;111146;1259;21983;-79
2023/07/11 08:57:11;;;;;;;7.90;2.90;;;;;;;29.31;34.27;100578.73;110846;1259;23610;-79
2023/07/11 09:00:12;;;;;;;4.00;2.50;;;;;;;29.41;34.22;100577.78;110912;1259;21988;-80
2023/07/11 09:03:24;;;;;;;5.40;3.50;;;;;;;29.56;34.01;100573.88;111053;1259;21977;-80
2023/07/11 09:06:07;;;;;;;6.70;3.40;;;;;;;29.62;33.12;100570.61;110692;1263;23617;-79
2023/07/11 09:08:49;;;;;;;3.80;3.10;;;;;;;29.56;33.55;100577.16;110611;1261;21952;-81
2023/07/11 09:12:27;;;;;;;4.50;2.70;;;;;;;29.58;33.83;100572.65;109714;1270;21985;-79
2023/07/11 09:15:20;;;;;;;5.10;2.80;;;;;;;29.58;33.67;100568.13;110285;1269;22033;-80
2023/07/11 09:18:37;;;;;;;7.20;4.00;;;;;;;29.53;33.72;100567.34;110046;1269;21961;-80
2023/07/11 09:21:39;;;;;;;5.10;3.90;;;;;;;29.21;34.62;100573.22;110060;1269;21980;-80
2023/07/11 09:25:08;;;;;;;;;;;;;;;;;;;;;
2023/07/11 09:27:51;;;;;;;6.50;5.10;;;;;;;28.96;36.45;100570.48;110176;1265;21974;-80
2023/07/11 09:30:53;;;;;;;;;;;;;;;;;;;;;
2023/07/11 09:33:50;;;;;;;7.00;4.60;;;;;;;29.12;36.33;100570.17;111120;1259;21969;-80
2023/07/11 09:36:33;;;;;;;11.80;3.90;;;;;;;29.11;36.21;100558.81;110814;1263;21998;-80
2023/07/11 09:39:22;;;;;;;7.50;3.90;;;;;;;28.98;36.24;100566.84;110657;1263;22007;-80
2023/07/11 09:42:33;;;;;;;6.50;4.10;;;;;;;28.67;36.27;100566.79;110725;1263;21969;-79
2023/07/11 09:45:34;;;;;;;7.10;4.60;;;;;;;28.47;36.94;100562.64;110841;1263;23004;-81
2023/07/11 09:48:27;;;;;;;14.00;5.00;;;;;;;28.55;37.37;100568.61;110650;1263;23814;-78
2023/07/11 09:51:31;;;;;;;7.80;4.80;;;;;;;28.36;36.95;100569.94;110700;1261;22049;-80
2023/07/11 09:54:47;;;;;;;6.40;4.10;;;;;;;28.05;37.97;100570.25;110800;1259;21975;-80
2023/07/11 09:57:46;;;;;;;9.90;4.40;;;;;;;28.07;38.33;100566.13;111201;1259;21961;-80
2023/07/11 10:00:24;;;;;;;5.90;4.50;;;;;;;28.21;37.94;100563.55;110911;1259;21981;-81
2023/07/11 10:02:59;;;;;;;6.90;4.10;;;;;;;28.32;37.74;100562.16;111191;1258;21934;-80
2023/07/11 10:05:43;;;;;;;5.60;4.20;;;;;;;28.32;37.42;100565.02;111120;1259;22008;-80
2023/07/11 10:08:22;;;;;;;10.90;4.50;;;;;;;28.14;37.47;100571.40;111117;1259;21961;-79
2023/07/11 10:11:06;;;;;;;5.20;3.80;;;;;;;28.14;37.72;100566.11;110223;1262;22113;-81
2023/07/11 10:13:58;;;;;;;4.90;3.60;;;;;;;28.18;37.49;100573.88;110691;1265;23029;-81
2023/07/11 10:16:37;;;;;;;16.10;3.90;;;;;;;28.05;37.09;100578.70;110417;1265;21971;-81
2023/07/11 10:19:33;;;;;;;5.30;3.20;;;;;;;27.92;37.19;100580.30;110586;1265;21983;-80
2023/07/11 10:22:22;;;;;;;9.50;3.30;;;;;;;27.84;37.27;100579.29;110520;1264;21980;-81
2023/07/11 10:25:18;;;;;;;6.10;3.80;;;;;;;27.77;36.97;100579.30;110471;1263;22511;-80
2023/07/11 10:28:26;;;;;;;3.40;3.10;;;;;;;27.65;37.30;100584.05;110156;1268;24402;-79
2023/07/11 10:31:39;;;;;;;5.00;3.20;;;;;;;27.58;37.46;100584.59;110836;1263;21976;-80
2023/07/11 10:34:44;;;;;;;3.70;3.40;;;;;;;27.59;37.29;100581.08;110497;1263;22941;-80
2023/07/11 10:37:32;;;;;;;4.10;3.00;;;;;;;27.64;37.29;100577.48;110666;1263;21977;-80
2023/07/11 10:40:24;;;;;;;3.30;2.60;;;;;;;27.73;37.16;100579.16;110599;1263;23637;-81
2023/07/11 10:43:29;;;;;;;4.60;2.70;;;;;;;27.78;36.24;100579.21;110715;1263;23050;-81
2023/07/11 10:46:20;;;;;;;9.90;3.60;;;;;;;27.59;35.86;100577.15;110820;1258;24531;-81
2023/07/11 10:49:36;;;;;;;6.20;2.90;;;;;;;27.43;36.39;100578.82;110688;1264;21980;-82
2023/07/11 10:52:27;;;;;;;2.80;2.40;;;;;;;27.48;36.42;100572.77;110345;1263;22909;-83
2023/07/11 10:55:32;;;;;;;4.20;2.80;;;;;;;27.57;36.17;100566.09;109765;1269;23187;-83
2023/07/11 10:58:21;;;;;;;9.20;3.20;;;;;;;27.72;36.28;100564.50;109390;1274;22125;-82
2023/07/11 11:01:40;;;;;;;5.50;2.80;;;;;;;27.84;35.71;100572.48;109133;1280;22025;-80
2023/07/11 11:05:08;;;;;;;3.80;2.50;;;;;;;27.82;35.05;100566.71;109155;1280;23149;-81
2023/07/11 11:08:03;;;;;;;5.10;2.90;;;;;;;27.85;35.06;100559.31;109339;1274;23616;-83
2023/07/11 11:11:33;;;;;;;5.20;3.00;;;;;;;27.88;35.21;100556.74;109507;1274;21985;-82
2023/07/11 11:14:32;;;;;;;6.00;3.00;;;;;;;27.96;35.34;100553.17;109481;1273;21989;-82
2023/07/11 11:17:38;;;;;;;5.30;2.20;;;;;;;28.09;35.06;100549.61;109403;1276;21998;-82
2023/07/11 11:20:54;;;;;;;4.20;3.00;;;;;;;28.18;34.56;100542.96;110005;1265;22855;-84
2023/07/11 11:24:26;;;;;;;5.20;3.70;;;;;;;28.28;34.24;100539.52;110612;1265;22113;-80
2023/07/11 11:27:13;;;;;;;4.50;3.00;;;;;;;28.35;33.97;100536.57;110805;1263;23717;-81
2023/07/11 11:30:25;;;;;;;5.30;2.80;;;;;;;28.32;33.56;100535.84;110766;1265;22005;-80
2023/07/11 11:33:11;;;;;;;6.80;2.60;;;;;;;28.18;33.18;100533.42;109993;1269;23086;-81
2023/07/11 11:36:18;;;;;;;4.30;2.40;;;;;;;28.05;32.90;100536.65;110433;1265;21980;-84
2023/07/11 11:39:25;;;;;;;3.60;2.30;;;;;;;27.92;32.61;100531.61;110489;1265;21973;-83
2023/07/11 11:42:11;;;;;;;6.20;2.90;;;;;;;27.91;32.27;100526.04;110977;1260;24363;-83
2023/07/11 11:45:18;;;;;;;4.20;2.40;;;;;;;27.79;32.55;100529.23;109852;1270;22081;-80
2023/07/11 11:48:44;;;;;;;2.90;2.30;;;;;;;27.74;33.27;100528.02;109967;1268;22223;-81
2023/07/11 11:51:31;;;;;;;3.70;2.90;;;;;;;27.86;33.49;100527.23;109259;1282;22015;-81
2023/07/11 11:54:25;;;;;;;7.50;3.10;;;;;;;27.98;33.12;100520.75;108844;1283;23142;-84
2023/07/11 11:57:03;;;;;;;5.80;3.30;;;;;;;28.01;32.56;100521.04;109020;1282;23737;-82
2023/07/11 11:59:40;;;;;;;3.90;2.90;;;;;;;28.01;32.80;100514.35;108741;1287;22070;-81
2023/07/11 12:02:32;;;;;;;4.30;2.80;;;;;;;28.05;32.61;100511.42;108610;1286;23769;-81
2023/07/11 12:05:09;;;;;;;5.40;2.80;;;;;;;28.03;32.28;100507.33;108557;1286;21983;-83
2023/07/11 12:07:46;;;;;;;7.10;2.90;;;;;;;28.02;32.37;100512.48;108584;1286;23734;-82
2023/07/11 12:10:33;;;;;;;5.50;2.80;;;;;;;27.98;32.10;100507.05;108648;1284;23055;-79
2023/07/11 12:13:31;;;;;;;3.90;2.30;;;;;;;27.95;32.21;100504.42;108761;1285;21981;-78
2023/07/11 12:16:22;;;;;;;5.20;2.30;;;;;;;28.03;32.71;100506.64;108558;1285;22005;-80
2023/07/11 12:19:41;;;;;;;8.90;3.10;;;;;;;28.15;32.58;100502.88;108648;1285;22008;-83
2023/07/11 12:22:13;;;;;;;3.70;2.50;;;;;;;28.28;32.27;100498.41;108761;1276;23641;-79
2023/07/11 12:24:57;;;;;;;4.40;2.10;;;;;;;28.35;31.86;100496.30;109259;1270;22008;-80
2023/07/11 12:27:27;;;;;;;10.40;2.10;;;;;;;28.44;31.65;100497.66;108695;1275;22000;-77
2023/07/11 12:30:14;;;;;;;4.70;2.30;;;;;;;28.50;31.29;100496.65;109593;1275;21982;-79
2023/07/11 12:32:49;;;;;;;7.00;2.60;;;;;;;28.56;31.32;100497.90;109609;1275;22302;-80